Time;durP1;ratioP1;P1;durP2;ratioP2;P2;SDS_P1;SDS_P2;PMS_P1;PMS_P2;Temp;Humidity;BMP_temperature;BMP_pressure;BME280_temperature;BME280_humidity;BME280_pressure;Samples;Min_cycle;Max_cycle;Signal;HPM_P1;HPM_P2
2023/07/12 00:01:09;;;;;;;3.23;1.50;;;;;;;;;;5077740;28;20928;-82
2023/07/12 00:03:35;;;;;;;3.20;2.00;;;;;;;;;;5077373;28;20418;-81
2023/07/12 00:06:01;;;;;;;4.10;1.60;;;;;;;;;;5095486;28;20446;-82
2023/07/12 00:08:28;;;;;;;4.47;1.60;;;;;;;;;;5095461;28;20402;-83
2023/07/12 00:10:56;;;;;;;4.40;1.90;;;;;;;;;;5095147;28;20402;-83
2023/07/12 00:13:23;;;;;;;3.70;1.73;;;;;;;;;;5095371;28;20403;-83
2023/07/12 00:15:50;;;;;;;2.20;1.77;;;;;;;;;;5095154;28;20452;-83
2023/07/12 00:18:18;;;;;;;2.47;2.00;;;;;;;;;;5095167;28;20414;-83
2023/07/12 00:20:44;;;;;;;3.70;2.00;;;;;;;;;;5095054;28;20396;-83
2023/07/12 00:23:11;;;;;;;2.77;1.73;;;;;;;;;;5077162;28;20418;-83
2023/07/12 00:25:38;;;;;;;2.33;1.60;;;;;;;;;;5076882;28;20415;-83
2023/07/12 00:28:12;;;;;;;3.37;1.60;;;;;;;;;;5076798;28;20897;-83
2023/07/12 00:30:38;;;;;;;8.30;2.40;;;;;;;;;;5094961;28;20383;-83
2023/07/12 00:33:04;;;;;;;2.60;1.50;;;;;;;;;;5094841;28;20476;-83
2023/07/12 00:35:31;;;;;;;3.97;2.43;;;;;;;;;;5095172;28;20442;-83
2023/07/12 00:37:58;;;;;;;3.47;1.77;;;;;;;;;;5094388;28;20410;-83
2023/07/12 00:40:43;;;;;;;3.50;2.17;;;;;;;;;;5094517;28;20394;-84
2023/07/12 00:43:18;;;;;;;3.80;1.93;;;;;;;;;;5094886;28;20429;-84
2023/07/12 00:45:45;;;;;;;2.27;2.07;;;;;;;;;;5094618;28;20398;-83
2023/07/12 00:48:12;;;;;;;5.20;2.20;;;;;;;;;;5076632;28;20408;-84
2023/07/12 00:50:39;;;;;;;4.30;1.80;;;;;;;;;;5076653;28;20453;-84
2023/07/12 00:53:05;;;;;;;3.27;1.93;;;;;;;;;;5094519;28;20853;-84
2023/07/12 00:55:50;;;;;;;4.33;1.97;;;;;;;;;;5076780;28;20483;-84
2023/07/12 00:58:16;;;;;;;3.03;1.80;;;;;;;;;;5094237;28;20465;-84
2023/07/12 01:00:42;;;;;;;3.07;1.80;;;;;;;;;;5076774;28;20437;-84
2023/07/12 01:03:13;;;;;;;6.50;1.73;;;;;;;;;;5094108;28;20456;-84
2023/07/12 01:05:39;;;;;;;2.67;1.70;;;;;;;;;;5094428;28;20762;-85
2023/07/12 01:08:05;;;;;;;5.03;1.53;;;;;;;;;;5075892;28;20430;-83
2023/07/12 01:10:31;;;;;;;7.70;1.83;;;;;;;;;;5076577;28;20410;-84
2023/07/12 01:12:57;;;;;;;7.03;2.87;;;;;;;;;;5093936;28;20415;-84
2023/07/12 01:15:23;;;;;;;3.17;2.13;;;;;;;;;;5076212;28;20848;-83
2023/07/12 01:17:50;;;;;;;11.77;3.47;;;;;;;;;;5093495;28;20803;-83
2023/07/12 01:20:16;;;;;;;7.17;3.53;;;;;;;;;;5093916;28;20749;-83
2023/07/12 01:22:42;;;;;;;11.87;3.20;;;;;;;;;;5076351;28;20436;-83
2023/07/12 01:25:09;;;;;;;8.17;3.43;;;;;;;;;;5075913;28;20472;-82
2023/07/12 01:27:34;;;;;;;5.33;3.03;;;;;;;;;;5059577;28;20419;-83
2023/07/12 01:30:00;;;;;;;4.50;3.10;;;;;;;;;;5093609;28;20405;-83
2023/07/12 01:32:27;;;;;;;3.70;3.10;;;;;;;;;;5075985;28;20433;-82
2023/07/12 01:34:53;;;;;;;4.90;2.60;;;;;;;;;;5093716;28;20482;-82
2023/07/12 01:37:19;;;;;;;4.33;2.80;;;;;;;;;;5075663;28;20444;-82
2023/07/12 01:39:45;;;;;;;5.60;2.70;;;;;;;;;;5094253;28;20373;-82
2023/07/12 01:42:11;;;;;;;4.90;2.80;;;;;;;;;;5075813;28;20779;-82
2023/07/12 01:44:37;;;;;;;7.23;3.67;;;;;;;;;;5093961;28;20376;-81
2023/07/12 01:47:03;;;;;;;7.73;4.13;;;;;;;;;;5076108;28;20388;-81
2023/07/12 01:49:29;;;;;;;6.10;3.70;;;;;;;;;;5059106;28;20496;-81
2023/07/12 01:51:56;;;;;;;5.10;3.40;;;;;;;;;;5093896;28;20887;-81
2023/07/12 01:54:22;;;;;;;6.07;3.60;;;;;;;;;;5059226;28;20457;-81
2023/07/12 01:56:48;;;;;;;5.70;3.57;;;;;;;;;;5093407;28;20437;-81
2023/07/12 01:59:14;;;;;;;5.27;3.23;;;;;;;;;;5059178;28;20580;-81
2023/07/12 02:01:40;;;;;;;6.97;4.13;;;;;;;;;;5059333;28;20698;-81
2023/07/12 02:04:06;;;;;;;6.67;3.67;;;;;;;;;;5093494;28;20398;-81
2023/07/12 02:06:32;;;;;;;7.93;3.63;;;;;;;;;;5076052;28;20743;-81
2023/07/12 02:08:58;;;;;;;10.70;4.10;;;;;;;;;;5075471;28;20425;-81
2023/07/12 02:11:24;;;;;;;5.07;4.00;;;;;;;;;;5093337;28;20410;-81
2023/07/12 02:13:50;;;;;;;4.00;3.50;;;;;;;;;;5075646;28;20482;-81
2023/07/12 02:16:16;;;;;;;6.03;4.13;;;;;;;;;;5093786;28;20475;-81
2023/07/12 02:18:42;;;;;;;8.67;4.27;;;;;;;;;;5075614;28;20426;-81
2023/07/12 02:21:08;;;;;;;6.87;3.77;;;;;;;;;;5075868;28;20493;-81
2023/07/12 02:23:34;;;;;;;4.70;3.20;;;;;;;;;;5075673;28;20772;-81
2023/07/12 02:26:00;;;;;;;6.57;3.40;;;;;;;;;;5075330;28;20977;-81
2023/07/12 02:28:26;;;;;;;4.47;3.13;;;;;;;;;;5093608;28;20504;-81
2023/07/12 02:30:52;;;;;;;5.30;2.87;;;;;;;;;;5093052;28;20894;-81
2023/07/12 02:33:18;;;;;;;3.83;3.43;;;;;;;;;;5075896;28;20750;-81
2023/07/12 02:35:44;;;;;;;3.37;3.00;;;;;;;;;;5093671;28;20391;-81
2023/07/12 02:38:10;;;;;;;11.37;3.00;;;;;;;;;;5058740;28;20405;-81
2023/07/12 02:40:36;;;;;;;3.90;2.87;;;;;;;;;;5093790;28;20434;-81
2023/07/12 02:43:02;;;;;;;7.87;3.70;;;;;;;;;;5095300;28;20500;-81
2023/07/12 02:45:27;;;;;;;3.10;2.70;;;;;;;;;;5079886;28;20867;-81
2023/07/12 02:47:53;;;;;;;5.40;2.73;;;;;;;;;;5096992;28;20463;-82
2023/07/12 02:50:19;;;;;;;3.00;2.30;;;;;;;;;;5079139;28;20536;-82
2023/07/12 02:52:45;;;;;;;6.43;2.63;;;;;;;;;;5079456;28;20389;-82
2023/07/12 02:55:11;;;;;;;4.03;2.33;;;;;;;;;;5096619;28;20387;-85
2023/07/12 02:57:37;;;;;;;2.30;1.80;;;;;;;;;;5079032;28;20458;-84
2023/07/12 03:00:04;;;;;;;3.40;1.70;;;;;;;;;;5096934;28;20413;-83
2023/07/12 03:02:30;;;;;;;4.27;1.97;;;;;;;;;;5096819;28;20433;-87
2023/07/12 03:04:56;;;;;;;6.20;2.17;;;;;;;;;;5079158;28;20385;-86
2023/07/12 03:07:22;;;;;;;4.20;1.90;;;;;;;;;;5078990;28;20493;-84
2023/07/12 03:09:48;;;;;;;2.20;1.63;;;;;;;;;;5097272;28;20511;-84
2023/07/12 03:12:14;;;;;;;4.60;2.87;;;;;;;;;;5096895;28;20406;-83
2023/07/12 03:14:40;;;;;;;3.90;1.90;;;;;;;;;;5079204;28;20460;-84
2023/07/12 03:17:06;;;;;;;4.47;2.10;;;;;;;;;;5096986;28;20857;-84
2023/07/12 03:19:34;;;;;;;4.30;2.20;;;;;;;;;;5078530;28;20429;-84
2023/07/12 03:22:00;;;;;;;5.63;1.97;;;;;;;;;;5096194;28;20556;-83
2023/07/12 03:24:26;;;;;;;5.20;1.67;;;;;;;;;;5078776;28;20453;-85
2023/07/12 03:26:52;;;;;;;3.27;1.20;;;;;;;;;;5096539;28;20464;-85
2023/07/12 03:29:18;;;;;;;3.00;1.43;;;;;;;;;;5078211;28;20918;-84
2023/07/12 03:31:44;;;;;;;2.67;1.60;;;;;;;;;;5096415;28;20388;-86
2023/07/12 03:34:10;;;;;;;1.83;1.27;;;;;;;;;;5096263;28;20406;-85
2023/07/12 03:36:37;;;;;;;5.50;1.40;;;;;;;;;;5096429;28;20447;-85
2023/07/12 03:39:03;;;;;;;3.47;1.47;;;;;;;;;;5061450;28;20398;-85
2023/07/12 03:41:29;;;;;;;1.33;1.10;;;;;;;;;;5078342;28;20846;-85
2023/07/12 03:43:55;;;;;;;1.53;1.00;;;;;;;;;;5096270;28;20417;-85
2023/07/12 03:46:21;;;;;;;3.23;1.20;;;;;;;;;;5096309;28;20792;-85
2023/07/12 03:48:47;;;;;;;5.43;1.60;;;;;;;;;;5095537;28;20443;-84
2023/07/12 03:51:14;;;;;;;2.43;1.47;;;;;;;;;;5095699;28;20389;-84
2023/07/12 03:53:40;;;;;;;2.10;1.50;;;;;;;;;;5095695;28;20394;-84
2023/07/12 03:56:07;;;;;;;1.80;1.30;;;;;;;;;;5095978;28;20393;-85
2023/07/12 03:58:34;;;;;;;3.20;1.40;;;;;;;;;;5095999;28;20789;-85
2023/07/12 04:01:03;;;;;;;2.90;1.23;;;;;;;;;;5095405;28;20377;-85
2023/07/12 04:03:29;;;;;;;2.50;1.33;;;;;;;;;;5077922;28;20417;-86
2023/07/12 04:05:55;;;;;;;2.30;1.60;;;;;;;;;;5061251;28;20809;-85
2023/07/12 04:08:21;;;;;;;1.80;1.40;;;;;;;;;;5078280;28;20515;-84
2023/07/12 04:10:51;;;;;;;6.13;1.30;;;;;;;;;;5077952;28;20792;-83
2023/07/12 04:13:17;;;;;;;2.60;1.43;;;;;;;;;;5077657;28;20429;-84
2023/07/12 04:15:43;;;;;;;1.60;1.30;;;;;;;;;;5096031;28;20860;-84
2023/07/12 04:18:09;;;;;;;2.40;1.60;;;;;;;;;;5077249;28;20450;-83
2023/07/12 04:20:38;;;;;;;1.93;1.37;;;;;;;;;;5095943;28;20385;-83
2023/07/12 04:23:05;;;;;;;1.53;1.37;;;;;;;;;;5077301;28;20470;-82
2023/07/12 04:25:32;;;;;;;2.40;1.60;;;;;;;;;;5077849;28;20472;-83
2023/07/12 04:27:58;;;;;;;2.17;1.50;;;;;;;;;;5060655;28;20397;-82
2023/07/12 04:30:24;;;;;;;1.93;1.33;;;;;;;;;;5061365;28;20451;-82
2023/07/12 04:32:52;;;;;;;1.90;1.60;;;;;;;;;;5095765;28;20385;-83
2023/07/12 04:35:18;;;;;;;2.40;1.67;;;;;;;;;;5095959;28;20846;-83
2023/07/12 04:37:47;;;;;;;2.40;1.40;;;;;;;;;;5095705;28;20398;-83
2023/07/12 04:40:13;;;;;;;3.93;2.10;;;;;;;;;;5076968;28;20502;-83
2023/07/12 04:42:40;;;;;;;2.00;1.80;;;;;;;;;;5095651;28;20421;-83
2023/07/12 04:45:06;;;;;;;5.50;1.70;;;;;;;;;;5077288;28;20445;-83
2023/07/12 04:47:32;;;;;;;1.97;1.80;;;;;;;;;;5095620;28;20403;-82
2023/07/12 04:49:58;;;;;;;2.57;1.87;;;;;;;;;;5094888;28;20424;-83
2023/07/12 04:52:24;;;;;;;3.70;1.50;;;;;;;;;;5077539;28;20509;-83
2023/07/12 04:54:56;;;;;;;2.03;1.37;;;;;;;;;;5077379;28;20846;-83
2023/07/12 04:57:22;;;;;;;3.67;1.80;;;;;;;;;;5076783;28;20918;-82
2023/07/12 04:59:47;;;;;;;3.53;1.90;;;;;;;;;;5077234;28;20385;-83
2023/07/12 05:02:13;;;;;;;3.77;1.73;;;;;;;;;;5076673;28;20948;-83
2023/07/12 05:04:39;;;;;;;3.00;1.77;;;;;;;;;;5094556;28;20730;-83
2023/07/12 05:07:09;;;;;;;1.90;1.50;;;;;;;;;;5094788;28;20456;-83
2023/07/12 05:09:35;;;;;;;2.27;1.30;;;;;;;;;;5076906;28;20446;-83
2023/07/12 05:12:01;;;;;;;1.40;1.30;;;;;;;;;;5094685;28;20411;-82
2023/07/12 05:14:27;;;;;;;3.10;2.00;;;;;;;;;;5076780;28;20437;-83
2023/07/12 05:16:53;;;;;;;5.23;2.10;;;;;;;;;;5094723;28;20389;-83
2023/07/12 05:19:19;;;;;;;1.60;1.33;;;;;;;;;;5094423;28;20415;-83
2023/07/12 05:21:45;;;;;;;2.10;1.60;;;;;;;;;;5094509;28;20466;-83
2023/07/12 05:24:11;;;;;;;2.60;1.97;;;;;;;;;;5093918;28;20377;-83
2023/07/12 05:26:37;;;;;;;3.60;1.60;;;;;;;;;;5076362;28;20381;-84
2023/07/12 05:29:03;;;;;;;8.23;2.23;;;;;;;;;;5076519;28;20504;-83
2023/07/12 05:31:29;;;;;;;9.93;2.33;;;;;;;;;;5076281;28;20425;-83
2023/07/12 05:33:55;;;;;;;2.60;1.43;;;;;;;;;;5094601;28;20407;-83
2023/07/12 05:36:21;;;;;;;9.40;2.43;;;;;;;;;;5076132;28;20885;-83
2023/07/12 05:38:47;;;;;;;4.80;1.83;;;;;;;;;;5094164;28;20476;-84
2023/07/12 05:41:13;;;;;;;7.53;1.80;;;;;;;;;;5059878;28;20440;-83
2023/07/12 05:43:40;;;;;;;3.70;2.00;;;;;;;;;;5076650;28;20381;-84
2023/07/12 05:46:06;;;;;;;6.43;2.00;;;;;;;;;;5094228;28;20411;-83
2023/07/12 05:48:32;;;;;;;6.93;1.73;;;;;;;;;;5093937;28;20432;-83
2023/07/12 05:50:59;;;;;;;2.13;1.47;;;;;;;;;;5094153;28;20377;-85
2023/07/12 05:53:25;;;;;;;2.17;1.27;;;;;;;;;;5093617;28;20406;-84
2023/07/12 05:55:55;;;;;;;3.07;1.43;;;;;;;;;;5094110;28;20381;-85
2023/07/12 05:58:21;;;;;;;2.43;1.13;;;;;;;;;;5075729;28;20420;-85
2023/07/12 06:00:47;;;;;;;3.67;1.20;;;;;;;;;;5076517;28;20384;-86
2023/07/12 06:03:13;;;;;;;2.13;1.17;;;;;;;;;;5093983;28;20448;-83
2023/07/12 06:05:44;;;;;;;2.10;1.23;;;;;;;;;;5076780;28;20864;-83
2023/07/12 06:08:10;;;;;;;2.60;1.73;;;;;;;;;;5075668;28;20985;-83
2023/07/12 06:10:36;;;;;;;2.70;1.60;;;;;;;;;;5076398;28;20414;-83
2023/07/12 06:13:02;;;;;;;2.60;1.77;;;;;;;;;;5076100;28;20429;-84
2023/07/12 06:15:28;;;;;;;2.80;1.50;;;;;;;;;;5075548;28;20720;-85
2023/07/12 06:17:54;;;;;;;2.50;1.00;;;;;;;;;;5097248;28;20377;-85
2023/07/12 06:20:20;;;;;;;1.67;1.20;;;;;;;;;;5097965;28;20389;-85
2023/07/12 06:22:46;;;;;;;3.80;1.30;;;;;;;;;;5097573;28;20537;-85
2023/07/12 06:25:12;;;;;;;2.30;1.90;;;;;;;;;;5097698;28;20377;-84
2023/07/12 06:27:38;;;;;;;2.80;1.17;;;;;;;;;;5097824;28;20829;-83
2023/07/12 06:30:04;;;;;;;2.20;1.50;;;;;;;;;;5079897;28;20412;-83
2023/07/12 06:32:30;;;;;;;5.10;1.67;;;;;;;;;;5079115;28;20418;-85
2023/07/12 06:34:56;;;;;;;2.27;1.47;;;;;;;;;;5097398;28;20377;-85
2023/07/12 06:37:22;;;;;;;3.00;1.33;;;;;;;;;;5097568;28;20751;-83
2023/07/12 06:39:48;;;;;;;3.23;1.20;;;;;;;;;;5079745;28;20414;-82
2023/07/12 06:42:14;;;;;;;7.10;2.00;;;;;;;;;;5098387;28;20436;-82
2023/07/12 06:44:40;;;;;;;3.80;1.50;;;;;;;;;;5080641;28;20472;-84
2023/07/12 06:47:06;;;;;;;4.93;1.50;;;;;;;;;;5098174;28;20413;-83
2023/07/12 06:49:32;;;;;;;2.43;1.30;;;;;;;;;;5098201;28;20840;-84
2023/07/12 06:51:58;;;;;;;2.10;1.13;;;;;;;;;;5063229;28;20505;-84
2023/07/12 06:54:24;;;;;;;3.07;1.60;;;;;;;;;;5079245;28;20906;-85
2023/07/12 06:56:50;;;;;;;3.97;1.43;;;;;;;;;;5079448;28;20416;-81
2023/07/12 06:59:16;;;;;;;4.13;1.40;;;;;;;;;;5097292;28;20431;-83
2023/07/12 07:01:42;;;;;;;4.00;1.63;;;;;;;;;;5079509;28;20477;-81
2023/07/12 07:04:08;;;;;;;1.90;1.37;;;;;;;;;;5097538;28;20456;-82
2023/07/12 07:06:34;;;;;;;1.80;0.87;;;;;;;;;;5079464;28;20401;-80
2023/07/12 07:09:00;;;;;;;1.23;1.03;;;;;;;;;;5079373;28;20418;-80
2023/07/12 07:11:26;;;;;;;1.70;1.10;;;;;;;;;;5097464;28;20405;-81
2023/07/12 07:13:52;;;;;;;1.27;1.00;;;;;;;;;;5078904;28;20400;-82
2023/07/12 07:16:18;;;;;;;9.43;1.77;;;;;;;;;;5096790;28;20408;-84
2023/07/12 07:18:44;;;;;;;3.17;1.13;;;;;;;;;;5097172;28;20959;-85
2023/07/12 07:21:10;;;;;;;1.83;1.03;;;;;;;;;;5096681;28;20430;-83
2023/07/12 07:23:36;;;;;;;3.67;1.60;;;;;;;;;;5096582;28;20384;-85
2023/07/12 07:26:07;;;;;;;2.53;1.37;;;;;;;;;;5078934;28;20406;-84
2023/07/12 07:28:33;;;;;;;1.83;1.30;;;;;;;;;;5077733;28;20417;-87
2023/07/12 07:31:00;;;;;;;3.53;2.00;;;;;;;;;;5079439;28;20464;-85
2023/07/12 07:33:26;;;;;;;3.13;1.07;;;;;;;;;;5079011;28;20899;-89
2023/07/12 07:35:52;;;;;;;3.37;1.30;;;;;;;;;;5078773;28;20762;-85
2023/07/12 07:38:18;;;;;;;2.40;1.30;;;;;;;;;;5061567;28;20385;-85
2023/07/12 07:40:45;;;;;;;6.60;2.13;;;;;;;;;;5078114;28;20389;-86
2023/07/12 07:43:11;;;;;;;4.10;1.63;;;;;;;;;;5079126;28;20440;-87
2023/07/12 07:45:37;;;;;;;5.50;1.17;;;;;;;;;;5096456;28;20407;-85
2023/07/12 07:48:04;;;;;;;1.53;1.20;;;;;;;;;;5078046;28;20890;-87
2023/07/12 07:50:30;;;;;;;2.83;1.47;;;;;;;;;;5078716;28;20407;-85
2023/07/12 07:52:56;;;;;;;2.73;1.30;;;;;;;;;;5083428;28;20488;-85
2023/07/12 07:55:22;;;;;;;2.90;1.40;;;;;;;;;;5070058;28;20428;-86
2023/07/12 07:57:48;;;;;;;1.97;1.30;;;;;;;;;;5066646;28;20794;-86
2023/07/12 08:00:15;;;;;;;1.77;1.00;;;;;;;;;;5053411;28;20396;-92
2023/07/12 08:02:42;;;;;;;2.33;1.33;;;;;;;;;;5073958;28;20466;-85
2023/07/12 08:05:08;;;;;;;2.80;1.10;;;;;;;;;;5058225;28;20419;-87
2023/07/12 08:07:42;;;;;;;5.50;1.60;;;;;;;;;;5057885;28;20915;-85
2023/07/12 08:10:08;;;;;;;4.47;1.63;;;;;;;;;;5076840;28;20440;-91
2023/07/12 08:12:34;;;;;;;3.33;1.20;;;;;;;;;;5077078;28;20490;-88
2023/07/12 08:15:00;;;;;;;2.80;1.30;;;;;;;;;;5043648;28;20428;-80
2023/07/12 08:17:26;;;;;;;4.17;1.53;;;;;;;;;;5057661;28;20435;-79
2023/07/12 08:19:53;;;;;;;2.47;1.40;;;;;;;;;;5058181;28;20443;-81
2023/07/12 08:22:19;;;;;;;5.23;1.37;;;;;;;;;;5057244;28;20462;-82
2023/07/12 08:24:48;;;;;;;4.90;1.63;;;;;;;;;;5076848;28;21014;-83
2023/07/12 08:27:16;;;;;;;2.10;1.40;;;;;;;;;;5041247;28;20386;-81
2023/07/12 08:29:42;;;;;;;2.30;1.43;;;;;;;;;;5057968;28;20899;-80
2023/07/12 08:32:08;;;;;;;4.93;1.70;;;;;;;;;;5057917;28;20422;-82
2023/07/12 08:34:34;;;;;;;1.93;1.30;;;;;;;;;;5053367;28;20802;-80
2023/07/12 08:37:00;;;;;;;2.80;1.20;;;;;;;;;;5075516;28;20414;-79
2023/07/12 08:39:26;;;;;;;4.27;1.40;;;;;;;;;;5057249;28;20415;-78
2023/07/12 08:41:52;;;;;;;2.60;1.10;;;;;;;;;;5075260;28;20467;-81
2023/07/12 08:44:19;;;;;;;5.63;1.30;;;;;;;;;;5075664;28;20401;-79
2023/07/12 08:46:52;;;;;;;7.20;1.50;;;;;;;;;;5075758;28;20417;-78
2023/07/12 08:49:18;;;;;;;3.50;1.60;;;;;;;;;;5068303;28;20509;-81
2023/07/12 08:51:45;;;;;;;3.20;1.03;;;;;;;;;;5077252;28;20902;-80
2023/07/12 08:54:21;;;;;;;2.33;1.20;;;;;;;;;;5095232;28;20410;-81
2023/07/12 08:56:48;;;;;;;1.83;1.00;;;;;;;;;;5095663;28;20401;-81
2023/07/12 08:59:15;;;;;;;8.13;1.17;;;;;;;;;;5095429;28;20406;-81
2023/07/12 09:01:43;;;;;;;2.43;1.30;;;;;;;;;;5076918;28;20556;-82
2023/07/12 09:04:21;;;;;;;4.30;1.77;;;;;;;;;;5095600;28;20493;-81
2023/07/12 09:06:47;;;;;;;3.30;1.30;;;;;;;;;;5095179;28;20395;-80
2023/07/12 09:09:13;;;;;;;2.60;1.30;;;;;;;;;;5076302;28;20417;-81
2023/07/12 09:11:39;;;;;;;5.53;1.30;;;;;;;;;;5077112;28;20400;-80
2023/07/12 09:14:05;;;;;;;4.67;1.60;;;;;;;;;;5077092;28;20863;-81
2023/07/12 09:16:33;;;;;;;5.47;1.20;;;;;;;;;;5060179;28;20426;-81
2023/07/12 09:19:00;;;;;;;3.20;1.20;;;;;;;;;;5094856;28;20503;-81
2023/07/12 09:21:33;;;;;;;2.20;1.27;;;;;;;;;;5094477;28;20461;-80
2023/07/12 09:24:10;;;;;;;2.77;1.13;;;;;;;;;;5094790;28;20406;-81
2023/07/12 09:26:36;;;;;;;5.30;2.03;;;;;;;;;;5095007;28;20394;-80
2023/07/12 09:29:07;;;;;;;4.50;1.50;;;;;;;;;;5095003;28;20391;-80
2023/07/12 09:31:34;;;;;;;2.57;1.20;;;;;;;;;;5076216;28;20975;-82
2023/07/12 09:34:05;;;;;;;2.80;1.23;;;;;;;;;;5076770;28;20410;-81
2023/07/12 09:36:36;;;;;;;2.60;1.20;;;;;;;;;;5094596;28;20403;-81
2023/07/12 09:39:03;;;;;;;3.93;1.43;;;;;;;;;;5094589;28;20819;-82
2023/07/12 09:41:29;;;;;;;4.87;1.60;;;;;;;;;;5075570;28;20496;-81
2023/07/12 09:44:02;;;;;;;6.53;1.60;;;;;;;;;;5075988;28;20409;-82
2023/07/12 09:46:38;;;;;;;4.13;1.13;;;;;;;;;;5075876;28;20843;-81
2023/07/12 09:49:23;;;;;;;3.30;1.50;;;;;;;;;;5094093;28;20544;-81
2023/07/12 09:51:56;;;;;;;6.10;1.13;;;;;;;;;;5093858;28;20402;-81
2023/07/12 09:54:34;;;;;;;4.40;1.30;;;;;;;;;;5093657;28;20497;-81
2023/07/12 09:57:04;;;;;;;3.70;1.60;;;;;;;;;;5094607;28;20425;-80
2023/07/12 09:59:30;;;;;;;1.67;1.10;;;;;;;;;;5075633;28;20847;-80
2023/07/12 10:01:59;;;;;;;2.63;1.20;;;;;;;;;;5075981;28;20595;-79
2023/07/12 10:04:42;;;;;;;3.37;1.40;;;;;;;;;;5094087;28;20409;-80
2023/07/12 10:07:13;;;;;;;2.53;1.30;;;;;;;;;;5075937;28;20422;-80
2023/07/12 10:09:40;;;;;;;4.70;1.53;;;;;;;;;;5075508;28;20417;-80
2023/07/12 10:12:12;;;;;;;9.27;1.60;;;;;;;;;;5093912;28;20438;-80
2023/07/12 10:14:40;;;;;;;5.50;1.30;;;;;;;;;;5075302;28;20456;-80
2023/07/12 10:17:06;;;;;;;2.40;1.20;;;;;;;;;;5076200;28;20831;-80
2023/07/12 10:19:40;;;;;;;3.30;1.17;;;;;;;;;;5075536;28;20540;-80
2023/07/12 10:22:13;;;;;;;6.97;1.40;;;;;;;;;;5075868;28;20457;-80
2023/07/12 10:24:42;;;;;;;7.13;1.70;;;;;;;;;;5093854;28;20394;-80
2023/07/12 10:27:19;;;;;;;2.67;1.50;;;;;;;;;;5093664;28;20387;-80
2023/07/12 10:29:48;;;;;;;3.00;1.20;;;;;;;;;;5093639;28;20385;-81
2023/07/12 10:32:18;;;;;;;1.93;1.17;;;;;;;;;;5093444;28;20406;-80
2023/07/12 10:34:47;;;;;;;3.57;1.30;;;;;;;;;;5093096;28;20410;-81
2023/07/12 10:37:19;;;;;;;2.27;1.00;;;;;;;;;;5093100;28;20894;-80
2023/07/12 10:39:46;;;;;;;2.70;1.30;;;;;;;;;;5093484;28;20418;-80
2023/07/12 10:42:22;;;;;;;3.40;1.33;;;;;;;;;;5074912;28;20458;-80
2023/07/12 10:44:52;;;;;;;6.37;1.50;;;;;;;;;;5092927;28;20801;-81
2023/07/12 10:47:19;;;;;;;5.37;1.40;;;;;;;;;;5075284;28;20407;-81
2023/07/12 10:49:52;;;;;;;3.60;1.67;;;;;;;;;;5093377;28;20808;-80
2023/07/12 10:52:36;;;;;;;6.43;1.20;;;;;;;;;;5093634;28;20492;-80
2023/07/12 10:55:02;;;;;;;2.60;1.13;;;;;;;;;;5075525;28;20442;-80
2023/07/12 10:57:29;;;;;;;4.50;1.30;;;;;;;;;;5093493;28;20774;-80
2023/07/12 10:59:59;;;;;;;2.80;1.17;;;;;;;;;;5093452;28;20402;-80
2023/07/12 11:02:29;;;;;;;3.07;1.10;;;;;;;;;;5093023;28;20886;-80
2023/07/12 11:04:56;;;;;;;2.43;1.20;;;;;;;;;;5096401;28;20912;-80
2023/07/12 11:07:22;;;;;;;3.97;1.23;;;;;;;;;;5096657;28;20413;-81
2023/07/12 11:09:51;;;;;;;4.27;1.30;;;;;;;;;;5096647;28;20398;-79
2023/07/12 11:12:29;;;;;;;3.97;1.33;;;;;;;;;;5078879;28;20906;-80
2023/07/12 11:15:04;;;;;;;2.90;1.27;;;;;;;;;;5078478;28;20402;-80
2023/07/12 11:17:30;;;;;;;3.13;1.10;;;;;;;;;;5078255;28;20406;-81
2023/07/12 11:20:03;;;;;;;1.93;1.00;;;;;;;;;;5096883;28;20429;-81
2023/07/12 11:22:51;;;;;;;1.87;1.00;;;;;;;;;;5096031;28;20458;-80
2023/07/12 11:25:40;;;;;;;4.07;1.43;;;;;;;;;;5096688;28;20456;-81
2023/07/12 11:28:28;;;;;;;4.87;1.33;;;;;;;;;;5083480;28;20417;-79
2023/07/12 11:31:04;;;;;;;3.90;1.50;;;;;;;;;;5095067;28;20586;-80
2023/07/12 11:33:31;;;;;;;2.83;1.20;;;;;;;;;;5064344;28;20479;-80
2023/07/12 11:36:01;;;;;;;4.13;1.20;;;;;;;;;;5096170;28;20723;-79
2023/07/12 11:38:29;;;;;;;2.30;1.47;;;;;;;;;;5078045;28;20426;-81
2023/07/12 11:40:56;;;;;;;3.20;1.50;;;;;;;;;;5096268;28;20401;-80
2023/07/12 11:43:28;;;;;;;5.07;1.30;;;;;;;;;;5077629;28;20611;-80
2023/07/12 11:46:01;;;;;;;4.73;1.30;;;;;;;;;;5095941;28;20413;-80
2023/07/12 11:48:30;;;;;;;4.77;1.40;;;;;;;;;;5091053;28;20827;-80
2023/07/12 11:51:00;;;;;;;3.90;1.33;;;;;;;;;;5057743;28;20439;-82
2023/07/12 11:53:26;;;;;;;2.33;1.07;;;;;;;;;;5075547;28;20403;-81
2023/07/12 11:55:52;;;;;;;2.97;1.20;;;;;;;;;;5058970;28;20411;-81
2023/07/12 11:58:20;;;;;;;3.97;1.20;;;;;;;;;;5050992;28;20477;-80
2023/07/12 12:00:47;;;;;;;4.87;1.23;;;;;;;;;;5085358;28;20467;-79
2023/07/12 12:03:14;;;;;;;2.33;1.00;;;;;;;;;;5059257;28;20462;-80
2023/07/12 12:05:40;;;;;;;3.70;1.50;;;;;;;;;;5074990;28;20403;-80
2023/07/12 12:08:07;;;;;;;2.20;1.03;;;;;;;;;;5075261;28;20460;-80
2023/07/12 12:10:36;;;;;;;3.50;1.37;;;;;;;;;;5056892;28;20419;-80
2023/07/12 12:13:14;;;;;;;6.50;1.70;;;;;;;;;;5075199;28;20408;-80
2023/07/12 12:15:44;;;;;;;1.57;0.90;;;;;;;;;;5074315;28;20395;-80
2023/07/12 12:18:15;;;;;;;3.50;1.43;;;;;;;;;;5051438;28;20879;-80
2023/07/12 12:20:51;;;;;;;2.97;1.40;;;;;;;;;;5052962;28;20518;-81
2023/07/12 12:23:21;;;;;;;4.30;1.40;;;;;;;;;;5073793;28;20446;-80
2023/07/12 12:25:48;;;;;;;2.37;1.27;;;;;;;;;;5074401;28;20399;-80
2023/07/12 12:28:33;;;;;;;5.80;1.60;;;;;;;;;;5074732;28;20407;-81
2023/07/12 12:31:00;;;;;;;3.50;1.20;;;;;;;;;;5056171;28;20411;-81
2023/07/12 12:33:27;;;;;;;4.30;1.30;;;;;;;;;;5073643;28;20415;-82
2023/07/12 12:35:58;;;;;;;5.00;1.37;;;;;;;;;;5074535;28;20395;-81
2023/07/12 12:38:27;;;;;;;3.10;1.07;;;;;;;;;;5056955;28;20469;-87
2023/07/12 12:40:56;;;;;;;4.93;1.40;;;;;;;;;;5057134;28;20494;-87
2023/07/12 12:43:24;;;;;;;4.20;1.33;;;;;;;;;;5057113;28;20470;-85
2023/07/12 12:45:50;;;;;;;4.50;1.70;;;;;;;;;;5056927;28;20912;-86
2023/07/12 12:48:16;;;;;;;13.73;1.43;;;;;;;;;;5054274;28;20438;-85
2023/07/12 12:50:42;;;;;;;2.70;1.50;;;;;;;;;;5073669;28;20423;-86
2023/07/12 12:53:14;;;;;;;4.60;1.40;;;;;;;;;;5040186;28;20442;-85
2023/07/12 12:55:41;;;;;;;3.70;1.10;;;;;;;;;;5056023;28;20416;-85
2023/07/12 12:58:11;;;;;;;2.70;1.30;;;;;;;;;;5056827;28;20496;-84
2023/07/12 13:00:37;;;;;;;5.80;1.20;;;;;;;;;;5056125;28;20795;-86
2023/07/12 13:03:05;;;;;;;3.33;1.07;;;;;;;;;;5039032;28;20463;-85
2023/07/12 13:05:31;;;;;;;2.80;1.30;;;;;;;;;;5056068;28;20415;-88
2023/07/12 13:07:59;;;;;;;8.13;1.47;;;;;;;;;;5056164;28;20846;-86
2023/07/12 13:10:25;;;;;;;6.97;1.40;;;;;;;;;;5055535;28;20472;-86
2023/07/12 13:12:51;;;;;;;3.90;1.20;;;;;;;;;;5055692;28;20423;-84
2023/07/12 13:15:18;;;;;;;5.47;1.20;;;;;;;;;;5055673;28;20828;-85
2023/07/12 13:17:45;;;;;;;2.30;1.00;;;;;;;;;;5038235;28;20419;-85
2023/07/12 13:20:12;;;;;;;1.87;0.90;;;;;;;;;;5055892;28;20419;-86
2023/07/12 13:22:38;;;;;;;4.80;1.30;;;;;;;;;;5055452;28;20625;-85
2023/07/12 13:25:05;;;;;;;6.50;1.40;;;;;;;;;;5054885;28;20838;-83
2023/07/12 13:27:38;;;;;;;3.50;1.30;;;;;;;;;;5073033;28;20419;-86
2023/07/12 13:30:11;;;;;;;5.87;1.47;;;;;;;;;;5073763;28;20442;-85
2023/07/12 13:32:37;;;;;;;3.23;1.03;;;;;;;;;;5072790;28;20490;-86
2023/07/12 13:35:03;;;;;;;5.20;1.43;;;;;;;;;;5056138;28;20526;-85
2023/07/12 13:37:31;;;;;;;2.50;1.10;;;;;;;;;;5072822;28;20402;-89
2023/07/12 13:39:57;;;;;;;7.20;1.50;;;;;;;;;;5055080;28;20908;-86
2023/07/12 13:42:24;;;;;;;4.50;1.60;;;;;;;;;;5055724;28;20911;-85
2023/07/12 13:44:51;;;;;;;3.60;1.33;;;;;;;;;;5055094;28;20514;-85
2023/07/12 13:47:21;;;;;;;2.80;1.23;;;;;;;;;;5037959;28;20453;-85
2023/07/12 13:49:48;;;;;;;3.83;1.17;;;;;;;;;;5053662;28;20974;-86
2023/07/12 13:52:15;;;;;;;4.60;1.47;;;;;;;;;;5054753;28;20423;-86
2023/07/12 13:54:41;;;;;;;6.23;0.90;;;;;;;;;;5053430;28;20420;-81
2023/07/12 13:57:09;;;;;;;1.77;1.13;;;;;;;;;;5072647;28;20814;-82
2023/07/12 13:59:35;;;;;;;5.33;1.30;;;;;;;;;;5054946;28;20431;-82
2023/07/12 14:02:02;;;;;;;3.40;1.40;;;;;;;;;;5054190;28;20532;-82
2023/07/12 14:04:28;;;;;;;2.60;1.13;;;;;;;;;;5055372;28;20465;-81
2023/07/12 14:06:54;;;;;;;2.53;1.10;;;;;;;;;;5055185;28;20465;-82
2023/07/12 14:09:19;;;;;;;6.03;1.23;;;;;;;;;;5072271;28;20399;-82
2023/07/12 14:11:46;;;;;;;6.50;1.93;;;;;;;;;;5072604;28;20415;-82
2023/07/12 14:14:13;;;;;;;1.63;1.20;;;;;;;;;;5055100;28;20411;-82
2023/07/12 14:16:39;;;;;;;2.53;1.00;;;;;;;;;;5053787;28;20415;-83
2023/07/12 14:19:05;;;;;;;2.50;1.40;;;;;;;;;;5073197;28;20403;-83
2023/07/12 14:21:32;;;;;;;2.37;1.10;;;;;;;;;;5054590;28;20471;-82
2023/07/12 14:23:58;;;;;;;2.13;0.90;;;;;;;;;;5072231;28;20403;-82
2023/07/12 14:26:25;;;;;;;3.43;1.50;;;;;;;;;;5038431;28;20500;-82
2023/07/12 14:28:51;;;;;;;3.40;1.00;;;;;;;;;;5054479;28;20403;-83
2023/07/12 14:31:20;;;;;;;1.57;1.00;;;;;;;;;;5072063;28;20891;-82
2023/07/12 14:33:47;;;;;;;3.97;1.33;;;;;;;;;;5054667;28;20784;-82
2023/07/12 14:36:18;;;;;;;3.70;1.23;;;;;;;;;;5072780;28;20404;-83
2023/07/12 14:38:44;;;;;;;3.93;1.10;;;;;;;;;;5074818;28;20887;-84
2023/07/12 14:41:18;;;;;;;2.10;1.10;;;;;;;;;;5058408;28;20411;-82
2023/07/12 14:43:44;;;;;;;1.60;1.03;;;;;;;;;;5075310;28;20426;-82
2023/07/12 14:46:11;;;;;;;2.50;1.17;;;;;;;;;;5075470;28;20399;-81